sensor_id;sensor_type;location;lat;lon;timestamp;pressure;altitude;pressure_sealevel;temperature;humidity
31096;BME280;17749;51.962;8.560;2022-12-29T06:01:11;98545.63;;;10.35;100.00
31096;BME280;17749;51.962;8.560;2022-12-29T06:03:38;98565.97;;;10.36;100.00
31096;BME280;17749;51.962;8.560;2022-12-29T06:06:11;98555.88;;;10.41;100.00
31096;BME280;17749;51.962;8.560;2022-12-29T06:08:38;98565.56;;;10.42;100.00
31096;BME280;17749;51.962;8.560;2022-12-29T06:11:05;98579.41;;;10.47;100.00
31096;BME280;17749;51.962;8.560;2022-12-29T06:13:33;98574.28;;;10.44;100.00
31096;BME280;17749;51.962;8.560;2022-12-29T06:16:00;98554.75;;;10.45;100.00
31096;BME280;17749;51.962;8.560;2022-12-29T06:18:27;98573.25;;;10.47;100.00
31096;BME280;17749;51.962;8.560;2022-12-29T06:21:03;98570.31;;;10.51;100.00
31096;BME280;17749;51.962;8.560;2022-12-29T06:23:31;98554.34;;;10.51;100.00
31096;BME280;17749;51.962;8.560;2022-12-29T06:25:58;98562.19;;;10.53;100.00
31096;BME280;17749;51.962;8.560;2022-12-29T06:28:25;98575.63;;;10.51;100.00
31096;BME280;17749;51.962;8.560;2022-12-29T06:30:52;98566.88;;;10.49;100.00
31096;BME280;17749;51.962;8.560;2022-12-29T06:33:19;98584.53;;;10.50;100.00
31096;BME280;17749;51.962;8.560;2022-12-29T06:35:47;98562.19;;;10.53;100.00
31096;BME280;17749;51.962;8.560;2022-12-29T06:38:14;98586.84;;;10.57;100.00
31096;BME280;17749;51.962;8.560;2022-12-29T06:40:42;98606.31;;;10.57;100.00
31096;BME280;17749;51.962;8.560;2022-12-29T06:43:20;98610.78;;;10.57;100.00
31096;BME280;17749;51.962;8.560;2022-12-29T06:46:07;98608.88;;;10.59;100.00
31096;BME280;17749;51.962;8.560;2022-12-29T06:48:34;98616.31;;;10.53;100.00
31096;BME280;17749;51.962;8.560;2022-12-29T06:51:00;98616.69;;;10.47;100.00
31096;BME280;17749;51.962;8.560;2022-12-29T06:53:27;98634.09;;;10.39;100.00
31096;BME280;17749;51.962;8.560;2022-12-29T06:55:54;98637.41;;;10.28;100.00
31096;BME280;17749;51.962;8.560;2022-12-29T06:58:23;98633.50;;;10.19;100.00
31096;BME280;17749;51.962;8.560;2022-12-29T07:00:50;98633.22;;;10.09;100.00
31096;BME280;17749;51.962;8.560;2022-12-29T07:03:17;98637.94;;;10.04;100.00
31096;BME280;17749;51.962;8.560;2022-12-29T07:05:44;98649.81;;;9.99;100.00
31096;BME280;17749;51.962;8.560;2022-12-29T07:08:11;98648.41;;;9.93;100.00
31096;BME280;17749;51.962;8.560;2022-12-29T07:10:38;98650.09;;;9.94;100.00
31096;BME280;17749;51.962;8.560;2022-12-29T07:13:05;98653.72;;;9.93;100.00
31096;BME280;17749;51.962;8.560;2022-12-29T07:15:36;98645.56;;;9.96;100.00
31096;BME280;17749;51.962;8.560;2022-12-29T07:18:03;98625.91;;;9.99;100.00
31096;BME280;17749;51.962;8.560;2022-12-29T07:20:31;98630.25;;;10.00;100.00
31096;BME280;17749;51.962;8.560;2022-12-29T07:22:58;98637.19;;;10.02;100.00
31096;BME280;17749;51.962;8.560;2022-12-29T07:25:25;98642.31;;;10.05;100.00
31096;BME280;17749;51.962;8.560;2022-12-29T07:27:52;98648.22;;;10.10;100.00
31096;BME280;17749;51.962;8.560;2022-12-29T07:30:19;98667.03;;;10.07;100.00
31096;BME280;17749;51.962;8.560;2022-12-29T07:32:46;98676.69;;;9.94;100.00
31096;BME280;17749;51.962;8.560;2022-12-29T07:35:12;98679.88;;;9.85;100.00
31096;BME280;17749;51.962;8.560;2022-12-29T07:37:39;98694.69;;;9.75;100.00
31096;BME280;17749;51.962;8.560;2022-12-29T07:40:07;98696.91;;;9.66;100.00
31096;BME280;17749;51.962;8.560;2022-12-29T07:42:34;98699.75;;;9.63;100.00
31096;BME280;17749;51.962;8.560;2022-12-29T07:45:02;98696.19;;;9.64;100.00
31096;BME280;17749;51.962;8.560;2022-12-29T07:47:32;98705.53;;;9.56;100.00
31096;BME280;17749;51.962;8.560;2022-12-29T07:49:59;98696.47;;;9.44;100.00
31096;BME280;17749;51.962;8.560;2022-12-29T07:52:26;98703.59;;;9.43;100.00
31096;BME280;17749;51.962;8.560;2022-12-29T07:54:53;98705.56;;;9.40;100.00
31096;BME280;17749;51.962;8.560;2022-12-29T07:57:20;98711.16;;;9.35;100.00
31096;BME280;17749;51.962;8.560;2022-12-29T07:59:55;98703.09;;;9.37;100.00
31096;BME280;17749;51.962;8.560;2022-12-29T08:02:22;98703.25;;;9.34;100.00
31096;BME280;17749;51.962;8.560;2022-12-29T08:04:49;98709.19;;;9.39;100.00
31096;BME280;17749;51.962;8.560;2022-12-29T08:07:16;98704.97;;;9.35;100.00
31096;BME280;17749;51.962;8.560;2022-12-29T08:09:43;98714.06;;;9.31;100.00
31096;BME280;17749;51.962;8.560;2022-12-29T08:12:10;98719.22;;;9.34;100.00
31096;BME280;17749;51.962;8.560;2022-12-29T08:14:37;98723.66;;;9.33;100.00
31096;BME280;17749;51.962;8.560;2022-12-29T08:17:04;98728.72;;;9.38;100.00
31096;BME280;17749;51.962;8.560;2022-12-29T08:19:31;98724.53;;;9.34;100.00
31096;BME280;17749;51.962;8.560;2022-12-29T08:21:58;98737.03;;;9.32;100.00
31096;BME280;17749;51.962;8.560;2022-12-29T08:24:24;98737.88;;;9.32;100.00
31096;BME280;17749;51.962;8.560;2022-12-29T08:26:52;98747.81;;;9.29;100.00
31096;BME280;17749;51.962;8.560;2022-12-29T08:29:19;98747.66;;;9.32;100.00
31096;BME280;17749;51.962;8.560;2022-12-29T08:31:48;98745.53;;;9.38;100.00
31096;BME280;17749;51.962;8.560;2022-12-29T08:34:14;98741.06;;;9.39;100.00
31096;BME280;17749;51.962;8.560;2022-12-29T08:36:41;98743.19;;;9.32;100.00
31096;BME280;17749;51.962;8.560;2022-12-29T08:39:09;98733.59;;;9.30;100.00
31096;BME280;17749;51.962;8.560;2022-12-29T08:41:36;98735.50;;;9.28;100.00
31096;BME280;17749;51.962;8.560;2022-12-29T08:44:03;98740.13;;;9.24;100.00
31096;BME280;17749;51.962;8.560;2022-12-29T08:46:30;98740.03;;;9.26;100.00
31096;BME280;17749;51.962;8.560;2022-12-29T08:48:58;98741.50;;;9.31;100.00
31096;BME280;17749;51.962;8.560;2022-12-29T08:51:25;98745.94;;;9.31;100.00
31096;BME280;17749;51.962;8.560;2022-12-29T08:53:52;98751.09;;;9.34;100.00
31096;BME280;17749;51.962;8.560;2022-12-29T08:56:19;98764.28;;;9.35;100.00
31096;BME280;17749;51.962;8.560;2022-12-29T08:58:51;98760.75;;;9.35;100.00
31096;BME280;17749;51.962;8.560;2022-12-29T09:01:20;98765.91;;;9.38;100.00
31096;BME280;17749;51.962;8.560;2022-12-29T09:03:47;98767.69;;;9.37;100.00
31096;BME280;17749;51.962;8.560;2022-12-29T09:06:35;98781.09;;;9.36;100.00
31096;BME280;17749;51.962;8.560;2022-12-29T09:09:06;98776.88;;;9.32;100.00
31096;BME280;17749;51.962;8.560;2022-12-29T09:11:33;98768.13;;;9.30;100.00
31096;BME280;17749;51.962;8.560;2022-12-29T09:14:00;98780.19;;;9.19;100.00
31096;BME280;17749;51.962;8.560;2022-12-29T09:16:27;98762.75;;;9.15;100.00
31096;BME280;17749;51.962;8.560;2022-12-29T09:18:54;98777.13;;;9.11;100.00
31096;BME280;17749;51.962;8.560;2022-12-29T09:21:21;98779.03;;;9.09;100.00
31096;BME280;17749;51.962;8.560;2022-12-29T09:23:50;98778.69;;;9.15;100.00
31096;BME280;17749;51.962;8.560;2022-12-29T09:26:19;98778.31;;;9.21;100.00
31096;BME280;17749;51.962;8.560;2022-12-29T09:28:47;98777.41;;;9.23;100.00
31096;BME280;17749;51.962;8.560;2022-12-29T09:31:18;98766.59;;;9.26;100.00
31096;BME280;17749;51.962;8.560;2022-12-29T09:33:54;98769.75;;;9.32;100.00
31096;BME280;17749;51.962;8.560;2022-12-29T09:36:27;98768.72;;;9.35;100.00
31096;BME280;17749;51.962;8.560;2022-12-29T09:38:57;98770.47;;;9.36;100.00
31096;BME280;17749;51.962;8.560;2022-12-29T09:44:23;98777.66;;;9.34;100.00
31096;BME280;17749;51.962;8.560;2022-12-29T09:46:53;98783.81;;;9.34;100.00
31096;BME280;17749;51.962;8.560;2022-12-29T09:51:55;98794.09;;;9.25;100.00
31096;BME280;17749;51.962;8.560;2022-12-29T10:00:37;98806.09;;;9.32;100.00
31096;BME280;17749;51.962;8.560;2022-12-29T10:03:19;98788.63;;;9.28;100.00
31096;BME280;17749;51.962;8.560;2022-12-29T10:06:06;98792.03;;;9.30;100.00
31096;BME280;17749;51.962;8.560;2022-12-29T10:20:10;98796.66;;;9.26;100.00
31096;BME280;17749;51.962;8.560;2022-12-29T10:24:44;98801.31;;;9.38;100.00
31096;BME280;17749;51.962;8.560;2022-12-29T10:27:14;98800.28;;;9.41;100.00
31096;BME280;17749;51.962;8.560;2022-12-29T10:29:55;98793.41;;;9.37;100.00
31096;BME280;17749;51.962;8.560;2022-12-29T10:34:56;98798.91;;;9.34;100.00
31096;BME280;17749;51.962;8.560;2022-12-29T10:37:40;98787.19;;;9.38;100.00
31096;BME280;17749;51.962;8.560;2022-12-29T10:40:31;98794.00;;;9.42;100.00
31096;BME280;17749;51.962;8.560;2022-12-29T10:42:59;98791.88;;;9.49;100.00
31096;BME280;17749;51.962;8.560;2022-12-29T10:45:31;98799.25;;;9.59;100.00
31096;BME280;17749;51.962;8.560;2022-12-29T10:48:06;98790.41;;;9.75;100.00
31096;BME280;17749;51.962;8.560;2022-12-29T10:50:36;98790.81;;;9.83;100.00
31096;BME280;17749;51.962;8.560;2022-12-29T10:53:25;98787.97;;;9.86;100.00
31096;BME280;17749;51.962;8.560;2022-12-29T10:55:53;98780.75;;;9.88;100.00
31096;BME280;17749;51.962;8.560;2022-12-29T10:58:22;98777.59;;;9.81;100.00
31096;BME280;17749;51.962;8.560;2022-12-29T11:00:52;98785.50;;;9.83;100.00
31096;BME280;17749;51.962;8.560;2022-12-29T11:03:44;98774.66;;;9.86;100.00
31096;BME280;17749;51.962;8.560;2022-12-29T11:06:25;98764.03;;;9.86;100.00
31096;BME280;17749;51.962;8.560;2022-12-29T11:08:56;98778.25;;;9.85;100.00
31096;BME280;17749;51.962;8.560;2022-12-29T11:11:28;98762.41;;;9.83;100.00
31096;BME280;17749;51.962;8.560;2022-12-29T11:14:10;98770.28;;;9.85;100.00
31096;BME280;17749;51.962;8.560;2022-12-29T11:16:38;98766.03;;;9.82;100.00
31096;BME280;17749;51.962;8.560;2022-12-29T11:19:05;98774.84;;;9.83;100.00
31096;BME280;17749;51.962;8.560;2022-12-29T11:21:33;98764.47;;;9.78;100.00
31096;BME280;17749;51.962;8.560;2022-12-29T11:24:03;98783.56;;;9.85;100.00
31096;BME280;17749;51.962;8.560;2022-12-29T11:26:31;98774.84;;;9.83;100.00
31096;BME280;17749;51.962;8.560;2022-12-29T11:31:52;98773.91;;;9.84;100.00
31096;BME280;17749;51.962;8.560;2022-12-29T11:34:30;98772.44;;;9.78;100.00
31096;BME280;17749;51.962;8.560;2022-12-29T11:37:16;98785.66;;;9.80;100.00
31096;BME280;17749;51.962;8.560;2022-12-29T11:40:03;98780.44;;;9.78;100.00
31096;BME280;17749;51.962;8.560;2022-12-29T11:42:37;98786.59;;;9.79;100.00
31096;BME280;17749;51.962;8.560;2022-12-29T11:45:19;98792.03;;;9.77;100.00
31096;BME280;17749;51.962;8.560;2022-12-29T11:47:50;98790.22;;;9.78;100.00
31096;BME280;17749;51.962;8.560;2022-12-29T11:50:21;98791.84;;;9.80;100.00
31096;BME280;17749;51.962;8.560;2022-12-29T11:52:50;98797.22;;;9.79;100.00
31096;BME280;17749;51.962;8.560;2022-12-29T11:55:25;98793.91;;;9.75;100.00
31096;BME280;17749;51.962;8.560;2022-12-29T11:57:55;98801.78;;;9.77;100.00
31096;BME280;17749;51.962;8.560;2022-12-29T12:00:24;98791.91;;;9.79;100.00
31096;BME280;17749;51.962;8.560;2022-12-29T12:03:15;98791.84;;;9.80;100.00
31096;BME280;17749;51.962;8.560;2022-12-29T12:05:51;98794.22;;;9.85;100.00
31096;BME280;17749;51.962;8.560;2022-12-29T12:11:30;98797.16;;;9.80;100.00
31096;BME280;17749;51.962;8.560;2022-12-29T12:14:20;98799.88;;;9.79;100.00
31096;BME280;17749;51.962;8.560;2022-12-29T12:17:18;98808.63;;;9.81;100.00
31096;BME280;17749;51.962;8.560;2022-12-29T12:19:52;98792.63;;;9.82;100.00
31096;BME280;17749;51.962;8.560;2022-12-29T12:25:13;98797.06;;;9.82;100.00
31096;BME280;17749;51.962;8.560;2022-12-29T12:30:27;98806.94;;;9.80;100.00
31096;BME280;17749;51.962;8.560;2022-12-29T12:35:44;98828.22;;;9.80;100.00
31096;BME280;17749;51.962;8.560;2022-12-29T12:41:13;98829.06;;;9.80;100.00
31096;BME280;17749;51.962;8.560;2022-12-29T12:44:00;98820.97;;;9.82;100.00
31096;BME280;17749;51.962;8.560;2022-12-29T12:58:27;98841.13;;;9.86;100.00
31096;BME280;17749;51.962;8.560;2022-12-29T13:04:22;98836.75;;;9.85;100.00
31096;BME280;17749;51.962;8.560;2022-12-29T13:18:37;98872.28;;;9.84;100.00
31096;BME280;17749;51.962;8.560;2022-12-29T13:21:56;98872.44;;;9.81;100.00
31096;BME280;17749;51.962;8.560;2022-12-29T13:30:04;98883.25;;;9.78;100.00
31096;BME280;17749;51.962;8.560;2022-12-29T13:33:04;98880.84;;;9.73;100.00
31096;BME280;17749;51.962;8.560;2022-12-29T13:35:59;98886.00;;;9.76;100.00
31096;BME280;17749;51.962;8.560;2022-12-29T13:38:47;98888.75;;;9.75;100.00
31096;BME280;17749;51.962;8.560;2022-12-29T13:41:34;98887.88;;;9.74;100.00
31096;BME280;17749;51.962;8.560;2022-12-29T13:44:05;98898.50;;;9.74;100.00
31096;BME280;17749;51.962;8.560;2022-12-29T13:46:40;98903.16;;;9.71;100.00
31096;BME280;17749;51.962;8.560;2022-12-29T13:49:17;98904.84;;;9.72;100.00
31096;BME280;17749;51.962;8.560;2022-12-29T13:51:58;98919.88;;;9.73;100.00
31096;BME280;17749;51.962;8.560;2022-12-29T14:00:04;98923.38;;;9.73;100.00
31096;BME280;17749;51.962;8.560;2022-12-29T14:07:44;98926.13;;;9.72;100.00
31096;BME280;17749;51.962;8.560;2022-12-29T14:10:50;98925.25;;;9.71;100.00
31096;BME280;17749;51.962;8.560;2022-12-29T14:13:23;98942.25;;;9.69;100.00
31096;BME280;17749;51.962;8.560;2022-12-29T14:15:52;98941.38;;;9.68;100.00
31096;BME280;17749;51.962;8.560;2022-12-29T14:18:28;98932.63;;;9.66;100.00
31096;BME280;17749;51.962;8.560;2022-12-29T14:21:18;98935.22;;;9.68;100.00
31096;BME280;17749;51.962;8.560;2022-12-29T14:23:47;98948.69;;;9.64;100.00
31096;BME280;17749;51.962;8.560;2022-12-29T14:29:22;98958.28;;;9.51;100.00
31096;BME280;17749;51.962;8.560;2022-12-29T14:34:52;98965.00;;;9.41;100.00
31096;BME280;17749;51.962;8.560;2022-12-29T14:42:38;98975.03;;;9.18;100.00
31096;BME280;17749;51.962;8.560;2022-12-29T14:47:47;98981.16;;;9.20;100.00
31096;BME280;17749;51.962;8.560;2022-12-29T14:50:18;98980.03;;;9.25;100.00
31096;BME280;17749;51.962;8.560;2022-12-29T14:58:29;98975.50;;;9.27;100.00
31096;BME280;17749;51.962;8.560;2022-12-29T15:00:58;98977.38;;;9.25;100.00
31096;BME280;17749;51.962;8.560;2022-12-29T15:03:32;98972.00;;;9.26;100.00
31096;BME280;17749;51.962;8.560;2022-12-29T15:06:08;98976.28;;;9.29;100.00
31096;BME280;17749;51.962;8.560;2022-12-29T15:08:43;98979.72;;;9.31;100.00
31096;BME280;17749;51.962;8.560;2022-12-29T15:11:15;98974.72;;;9.25;100.00
31096;BME280;17749;51.962;8.560;2022-12-29T15:13:44;98973.00;;;9.24;100.00
31096;BME280;17749;51.962;8.560;2022-12-29T15:16:40;98988.72;;;9.28;100.00
31096;BME280;17749;51.962;8.560;2022-12-29T15:19:21;98990.66;;;9.25;100.00
31096;BME280;17749;51.962;8.560;2022-12-29T15:21:48;98995.97;;;9.25;100.00
31096;BME280;17749;51.962;8.560;2022-12-29T15:24:16;98995.84;;;9.28;100.00
31096;BME280;17749;51.962;8.560;2022-12-29T15:26:49;99001.28;;;9.25;100.00
31096;BME280;17749;51.962;8.560;2022-12-29T15:29:40;99000.25;;;9.27;100.00
31096;BME280;17749;51.962;8.560;2022-12-29T15:32:20;99002.47;;;9.19;100.00
31096;BME280;17749;51.962;8.560;2022-12-29T15:34:51;99003.47;;;9.16;100.00
31096;BME280;17749;51.962;8.560;2022-12-29T15:37:24;99009.56;;;9.18;100.00
31096;BME280;17749;51.962;8.560;2022-12-29T15:39:52;99016.00;;;9.14;100.00
31096;BME280;17749;51.962;8.560;2022-12-29T15:42:26;99009.06;;;9.12;100.00
31096;BME280;17749;51.962;8.560;2022-12-29T15:44:55;99023.97;;;9.14;100.00
31096;BME280;17749;51.962;8.560;2022-12-29T15:47:35;99019.75;;;9.10;100.00
31096;BME280;17749;51.962;8.560;2022-12-29T15:50:14;99025.91;;;9.11;100.00
31096;BME280;17749;51.962;8.560;2022-12-29T15:52:42;99025.06;;;9.10;100.00
31096;BME280;17749;51.962;8.560;2022-12-29T15:58:01;99025.84;;;9.12;100.00
31096;BME280;17749;51.962;8.560;2022-12-29T16:00:35;99031.53;;;9.05;100.00
31096;BME280;17749;51.962;8.560;2022-12-29T16:03:12;99031.31;;;9.09;100.00
31096;BME280;17749;51.962;8.560;2022-12-29T16:05:40;99035.75;;;9.09;100.00
31096;BME280;17749;51.962;8.560;2022-12-29T16:08:24;99034.81;;;9.10;100.00
31096;BME280;17749;51.962;8.560;2022-12-29T16:10:54;99039.28;;;9.09;100.00
31096;BME280;17749;51.962;8.560;2022-12-29T16:13:34;99035.84;;;9.07;100.00
31096;BME280;17749;51.962;8.560;2022-12-29T16:16:11;99027.09;;;9.05;100.00
31096;BME280;17749;51.962;8.560;2022-12-29T16:18:40;99028.25;;;8.99;100.00
31096;BME280;17749;51.962;8.560;2022-12-29T16:21:18;99029.09;;;9.00;100.00
31096;BME280;17749;51.962;8.560;2022-12-29T16:23:49;99032.72;;;8.99;100.00
31096;BME280;17749;51.962;8.560;2022-12-29T16:26:18;99034.41;;;9.00;100.00
31096;BME280;17749;51.962;8.560;2022-12-29T16:28:48;99035.28;;;9.00;100.00
31096;BME280;17749;51.962;8.560;2022-12-29T16:31:22;99030.06;;;8.99;100.00
31096;BME280;17749;51.962;8.560;2022-12-29T16:33:52;99035.13;;;9.04;100.00
31096;BME280;17749;51.962;8.560;2022-12-29T16:36:27;99034.25;;;9.03;100.00
31096;BME280;17749;51.962;8.560;2022-12-29T16:39:21;99024.88;;;8.96;100.00
31096;BME280;17749;51.962;8.560;2022-12-29T16:41:50;99028.31;;;8.98;100.00
31096;BME280;17749;51.962;8.560;2022-12-29T16:49:27;99023.81;;;9.00;100.00
31096;BME280;17749;51.962;8.560;2022-12-29T16:51:54;99034.59;;;8.97;100.00
31096;BME280;17749;51.962;8.560;2022-12-29T16:54:24;99039.09;;;8.95;100.00
31096;BME280;17749;51.962;8.560;2022-12-29T16:56:52;99039.03;;;8.96;100.00
31096;BME280;17749;51.962;8.560;2022-12-29T17:02:10;99032.84;;;8.96;100.00
31096;BME280;17749;51.962;8.560;2022-12-29T17:04:39;99044.34;;;8.96;100.00
31096;BME280;17749;51.962;8.560;2022-12-29T17:07:16;99039.56;;;9.03;100.00
31096;BME280;17749;51.962;8.560;2022-12-29T17:09:44;99038.09;;;8.97;100.00
31096;BME280;17749;51.962;8.560;2022-12-29T17:12:20;99039.88;;;8.97;100.00
31096;BME280;17749;51.962;8.560;2022-12-29T17:17:46;99048.78;;;8.96;100.00
31096;BME280;17749;51.962;8.560;2022-12-29T17:20:20;99052.31;;;8.96;100.00
31096;BME280;17749;51.962;8.560;2022-12-29T17:22:48;99047.75;;;8.98;100.00
31096;BME280;17749;51.962;8.560;2022-12-29T17:25:35;99045.19;;;8.97;100.00
31096;BME280;17749;51.962;8.560;2022-12-29T17:28:17;99054.88;;;8.98;100.00
31096;BME280;17749;51.962;8.560;2022-12-29T17:30:47;99070.91;;;8.96;100.00
31096;BME280;17749;51.962;8.560;2022-12-29T17:33:19;99067.38;;;8.96;100.00
31096;BME280;17749;51.962;8.560;2022-12-29T17:35:47;99075.31;;;8.96;100.00
31096;BME280;17749;51.962;8.560;2022-12-29T17:38:25;99075.09;;;9.00;100.00
31096;BME280;17749;51.962;8.560;2022-12-29T17:40:53;99078.78;;;8.98;100.00
31096;BME280;17749;51.962;8.560;2022-12-29T17:43:20;99077.22;;;8.94;100.00
31096;BME280;17749;51.962;8.560;2022-12-29T17:45:55;99084.25;;;8.95;100.00
31096;BME280;17749;51.962;8.560;2022-12-29T17:48:23;99081.44;;;8.98;100.00
31096;BME280;17749;51.962;8.560;2022-12-29T17:50:51;99080.63;;;8.96;100.00
31096;BME280;17749;51.962;8.560;2022-12-29T17:53:22;99081.53;;;8.96;100.00
31096;BME280;17749;51.962;8.560;2022-12-29T17:55:49;99082.28;;;8.98;100.00
31096;BME280;17749;51.962;8.560;2022-12-29T18:00:50;99077.22;;;8.94;100.00
31096;BME280;17749;51.962;8.560;2022-12-29T18:03:23;99078.22;;;8.91;100.00
31096;BME280;17749;51.962;8.560;2022-12-29T18:05:52;99086.09;;;8.93;100.00
31096;BME280;17749;51.962;8.560;2022-12-29T18:08:19;99095.00;;;8.92;100.00
31096;BME280;17749;51.962;8.560;2022-12-29T18:10:46;99105.47;;;8.95;100.00
31096;BME280;17749;51.962;8.560;2022-12-29T18:15:45;99114.69;;;8.88;100.00
31096;BME280;17749;51.962;8.560;2022-12-29T18:18:14;99124.53;;;8.86;100.00
31096;BME280;17749;51.962;8.560;2022-12-29T18:20:42;99128.97;;;8.85;100.00
31096;BME280;17749;51.962;8.560;2022-12-29T18:23:24;99131.22;;;8.75;100.00
31096;BME280;17749;51.962;8.560;2022-12-29T18:25:58;99142.25;;;8.66;100.00
31096;BME280;17749;51.962;8.560;2022-12-29T18:28:27;99162.16;;;8.58;100.00
31096;BME280;17749;51.962;8.560;2022-12-29T18:30:55;99151.25;;;8.45;100.00
31096;BME280;17749;51.962;8.560;2022-12-29T18:33:23;99165.69;;;8.38;100.00
31096;BME280;17749;51.962;8.560;2022-12-29T18:35:56;99156.28;;;8.30;100.00
31096;BME280;17749;51.962;8.560;2022-12-29T18:38:23;99159.31;;;8.23;100.00
31096;BME280;17749;51.962;8.560;2022-12-29T18:40:51;99159.50;;;8.18;100.00
31096;BME280;17749;51.962;8.560;2022-12-29T18:43:19;99171.91;;;8.18;100.00
31096;BME280;17749;51.962;8.560;2022-12-29T18:45:46;99174.16;;;8.06;100.00
31096;BME280;17749;51.962;8.560;2022-12-29T18:48:15;99166.44;;;8.02;100.00
31096;BME280;17749;51.962;8.560;2022-12-29T18:50:43;99182.34;;;8.02;100.00
31096;BME280;17749;51.962;8.560;2022-12-29T18:53:22;99184.34;;;7.97;100.00
31096;BME280;17749;51.962;8.560;2022-12-29T18:55:50;99176.78;;;7.87;100.00
31096;BME280;17749;51.962;8.560;2022-12-29T18:58:17;99181.06;;;7.69;100.00
31096;BME280;17749;51.962;8.560;2022-12-29T19:00:45;99188.50;;;7.61;100.00
31096;BME280;17749;51.962;8.560;2022-12-29T19:03:15;99180.63;;;7.60;100.00
31096;BME280;17749;51.962;8.560;2022-12-29T19:05:43;99190.56;;;7.55;100.00
31096;BME280;17749;51.962;8.560;2022-12-29T19:08:11;99186.44;;;7.47;100.00
31096;BME280;17749;51.962;8.560;2022-12-29T19:10:40;99191.88;;;7.44;100.00
31096;BME280;17749;51.962;8.560;2022-12-29T19:13:14;99185.09;;;7.37;100.00
31096;BME280;17749;51.962;8.560;2022-12-29T19:15:42;99193.97;;;7.36;100.00
31096;BME280;17749;51.962;8.560;2022-12-29T19:18:22;99196.00;;;7.30;100.00
31096;BME280;17749;51.962;8.560;2022-12-29T19:21:09;99187.22;;;7.29;100.00
31096;BME280;17749;51.962;8.560;2022-12-29T19:23:37;99202.28;;;7.27;100.00
31096;BME280;17749;51.962;8.560;2022-12-29T19:26:04;99195.47;;;7.21;100.00
31096;BME280;17749;51.962;8.560;2022-12-29T19:28:31;99198.28;;;7.17;100.00
31096;BME280;17749;51.962;8.560;2022-12-29T19:30:59;99195.59;;;7.18;100.00
31096;BME280;17749;51.962;8.560;2022-12-29T19:33:27;99197.25;;;7.21;100.00
31096;BME280;17749;51.962;8.560;2022-12-29T19:35:59;99200.88;;;7.18;100.00
31096;BME280;17749;51.962;8.560;2022-12-29T19:38:27;99199.16;;;7.17;100.00
31096;BME280;17749;51.962;8.560;2022-12-29T19:40:54;99203.84;;;7.11;100.00
31096;BME280;17749;51.962;8.560;2022-12-29T19:43:22;99206.66;;;7.06;100.00
31096;BME280;17749;51.962;8.560;2022-12-29T19:45:49;99212.94;;;7.03;100.00
31096;BME280;17749;51.962;8.560;2022-12-29T19:48:19;99224.34;;;7.06;100.00
31096;BME280;17749;51.962;8.560;2022-12-29T19:50:46;99220.06;;;7.01;100.00
31096;BME280;17749;51.962;8.560;2022-12-29T19:53:14;99219.34;;;6.98;100.00
31096;BME280;17749;51.962;8.560;2022-12-29T19:55:45;99216.63;;;6.99;100.00
31096;BME280;17749;51.962;8.560;2022-12-29T19:58:13;99219.34;;;6.98;100.00
31096;BME280;17749;51.962;8.560;2022-12-29T20:00:43;99222.84;;;6.98;100.00
31096;BME280;17749;51.962;8.560;2022-12-29T20:03:10;99232.41;;;7.02;100.00
31096;BME280;17749;51.962;8.560;2022-12-29T20:05:38;99224.38;;;7.04;100.00
31096;BME280;17749;51.962;8.560;2022-12-29T20:08:06;99225.38;;;7.01;100.00
31096;BME280;17749;51.962;8.560;2022-12-29T20:10:33;99231.59;;;7.00;100.00
31096;BME280;17749;51.962;8.560;2022-12-29T20:13:00;99237.81;;;6.99;100.00
31096;BME280;17749;51.962;8.560;2022-12-29T20:15:26;99229.09;;;6.97;100.00
31096;BME280;17749;51.962;8.560;2022-12-29T20:17:53;99237.81;;;6.99;100.00
31096;BME280;17749;51.962;8.560;2022-12-29T20:20:41;99249.50;;;6.94;100.00
31096;BME280;17749;51.962;8.560;2022-12-29T20:23:09;99248.72;;;6.92;100.00
31096;BME280;17749;51.962;8.560;2022-12-29T20:25:36;99247.94;;;6.88;100.00
31096;BME280;17749;51.962;8.560;2022-12-29T20:28:13;99252.34;;;6.89;100.00
31096;BME280;17749;51.962;8.560;2022-12-29T20:30:41;99253.31;;;6.87;100.00
31096;BME280;17749;51.962;8.560;2022-12-29T20:33:08;99250.84;;;6.82;100.00
31096;BME280;17749;51.962;8.560;2022-12-29T20:35:36;99256.94;;;6.84;100.00
31096;BME280;17749;51.962;8.560;2022-12-29T20:38:04;99255.44;;;6.77;100.00
31096;BME280;17749;51.962;8.560;2022-12-29T20:40:31;99258.91;;;6.79;100.00
31096;BME280;17749;51.962;8.560;2022-12-29T20:42:58;99259.69;;;6.81;100.00
31096;BME280;17749;51.962;8.560;2022-12-29T20:45:25;99256.47;;;6.73;100.00
31096;BME280;17749;51.962;8.560;2022-12-29T20:47:52;99262.75;;;6.70;100.00
31096;BME280;17749;51.962;8.560;2022-12-29T20:50:20;99269.00;;;6.68;100.00
31096;BME280;17749;51.962;8.560;2022-12-29T20:52:47;99277.03;;;6.66;100.00
31096;BME280;17749;51.962;8.560;2022-12-29T20:55:14;99277.06;;;6.65;100.00
31096;BME280;17749;51.962;8.560;2022-12-29T20:57:41;99286.75;;;6.66;100.00
31096;BME280;17749;51.962;8.560;2022-12-29T21:00:30;99279.59;;;6.68;100.00
31096;BME280;17749;51.962;8.560;2022-12-29T21:02:58;99279.59;;;6.68;100.00
31096;BME280;17749;51.962;8.560;2022-12-29T21:05:26;99288.59;;;6.64;100.00
31096;BME280;17749;51.962;8.560;2022-12-29T21:07:54;99288.47;;;6.67;100.00
31096;BME280;17749;51.962;8.560;2022-12-29T21:10:21;99288.59;;;6.64;100.00
31096;BME280;17749;51.962;8.560;2022-12-29T21:12:48;99291.97;;;6.67;100.00
31096;BME280;17749;51.962;8.560;2022-12-29T21:15:15;99287.44;;;6.71;100.00
31096;BME280;17749;51.962;8.560;2022-12-29T21:17:42;99292.75;;;6.71;100.00
31096;BME280;17749;51.962;8.560;2022-12-29T21:20:11;99286.50;;;6.72;100.00
31096;BME280;17749;51.962;8.560;2022-12-29T21:22:59;99296.16;;;6.73;100.00
31096;BME280;17749;51.962;8.560;2022-12-29T21:25:28;99298.72;;;6.76;100.00
31096;BME280;17749;51.962;8.560;2022-12-29T21:28:07;99302.38;;;6.72;100.00
